Time;durP1;ratioP1;P1;durP2;ratioP2;P2;SDS_P1;SDS_P2;PMS_P1;PMS_P2;Temp;Humidity;BMP_temperature;BMP_pressure;BME280_temperature;BME280_humidity;BME280_pressure;Samples;Min_cycle;Max_cycle;Signal;HPM_P1;HPM_P2
2023/03/08 00:01:49;;;;;;;21.40;8.93;;;-1.50;99.90;;;;;;4832685;29;20069;-60
2023/03/08 00:04:17;;;;;;;18.33;6.63;;;-1.60;99.90;;;;;;4832469;29;20062;-60
2023/03/08 00:06:45;;;;;;;15.63;6.88;;;-1.50;99.90;;;;;;4838722;29;20061;-59
2023/03/08 00:09:13;;;;;;;19.05;6.45;;;-1.60;99.90;;;;;;4824606;29;20058;-60
2023/03/08 00:11:41;;;;;;;12.07;6.50;;;-1.50;99.90;;;;;;4819278;29;20042;-59
2023/03/08 00:14:09;;;;;;;12.10;5.65;;;-1.50;99.90;;;;;;4825347;29;20411;-59
2023/03/08 00:16:39;;;;;;;11.10;5.30;;;-1.50;99.90;;;;;;4837622;29;20053;-60
2023/03/08 00:19:07;;;;;;;16.63;6.22;;;-1.40;99.90;;;;;;4833590;29;20057;-59
2023/03/08 00:21:34;;;;;;;20.13;7.22;;;-1.40;99.90;;;;;;4839661;29;20060;-59
2023/03/08 00:24:02;;;;;;;17.90;6.80;;;-1.40;99.90;;;;;;4828089;29;20057;-58
2023/03/08 00:26:30;;;;;;;18.48;6.63;;;-1.40;99.90;;;;;;4821135;29;20062;-59
2023/03/08 00:28:58;;;;;;;14.40;6.30;;;-1.30;99.90;;;;;;4830958;29;20057;-60
2023/03/08 00:31:27;;;;;;;12.45;6.63;;;-1.40;99.90;;;;;;4837936;29;20057;-60
2023/03/08 00:33:58;;;;;;;15.95;6.30;;;-1.30;99.90;;;;;;4834488;29;20537;-60
2023/03/08 00:36:26;;;;;;;20.35;6.65;;;-1.30;99.90;;;;;;4839377;29;20053;-59
2023/03/08 00:38:57;;;;;;;18.65;6.07;;;-1.40;99.90;;;;;;4838837;29;20061;-61
2023/03/08 00:41:24;;;;;;;13.85;6.18;;;-1.30;99.90;;;;;;4838929;29;20427;-59
2023/03/08 00:43:57;;;;;;;19.85;7.00;;;-1.30;99.90;;;;;;4815119;29;20416;-60
2023/03/08 00:46:33;;;;;;;15.02;5.18;;;-1.30;99.90;;;;;;4820752;29;20062;-59
2023/03/08 00:49:03;;;;;;;16.17;6.68;;;-1.30;99.90;;;;;;4833305;29;20057;-59
2023/03/08 00:51:34;;;;;;;16.75;6.30;;;-1.30;99.90;;;;;;4838739;29;20057;-60
2023/03/08 00:54:04;;;;;;;20.20;7.30;;;;;;;;;;4838600;29;20492;-60
2023/03/08 00:56:35;;;;;;;20.45;7.53;;;-1.30;99.90;;;;;;4836948;29;20398;-60
2023/03/08 00:59:03;;;;;;;13.60;6.60;;;-1.30;99.90;;;;;;4831712;29;20057;-60
2023/03/08 01:01:32;;;;;;;15.65;6.68;;;-1.20;99.90;;;;;;4819969;29;20054;-61
2023/03/08 01:04:03;;;;;;;17.35;6.72;;;-1.20;99.90;;;;;;4823854;29;20065;-58
2023/03/08 01:06:31;;;;;;;17.38;6.28;;;-1.20;99.90;;;;;;4836035;29;20054;-59
2023/03/08 01:08:59;;;;;;;13.38;6.30;;;-1.20;99.90;;;;;;4838320;29;20065;-58
2023/03/08 01:11:34;;;;;;;11.00;5.68;;;-1.10;99.90;;;;;;4837359;29;20050;-59
2023/03/08 01:14:03;;;;;;;15.23;5.80;;;-1.10;99.90;;;;;;4822389;29;20061;-59
2023/03/08 01:16:39;;;;;;;12.40;6.20;;;-1.10;99.90;;;;;;4820265;29;20046;-59
2023/03/08 01:19:10;;;;;;;12.85;5.95;;;-1.10;99.90;;;;;;4833103;29;20072;-59
2023/03/08 01:21:47;;;;;;;12.15;6.03;;;-1.10;99.90;;;;;;4819651;29;20057;-60
2023/03/08 01:24:15;;;;;;;14.15;4.97;;;-1.10;99.90;;;;;;4816383;29;20039;-59
2023/03/08 01:26:44;;;;;;;14.63;6.25;;;-1.00;99.90;;;;;;4820156;29;20054;-59
2023/03/08 01:29:12;;;;;;;12.10;5.97;;;-1.10;99.90;;;;;;4818606;29;20047;-59
2023/03/08 01:31:40;;;;;;;16.02;5.90;;;-1.10;99.90;;;;;;4820024;29;20054;-59
2023/03/08 01:34:08;;;;;;;17.95;6.05;;;-1.00;99.90;;;;;;4825797;29;20054;-59
2023/03/08 01:36:36;;;;;;;14.13;5.47;;;-1.00;99.90;;;;;;4813729;29;20043;-59
2023/03/08 01:39:04;;;;;;;15.07;6.38;;;-1.00;99.90;;;;;;4828238;29;20061;-59
2023/03/08 01:41:33;;;;;;;14.10;5.78;;;;;;;;;;4825475;29;20050;-60
2023/03/08 01:44:01;;;;;;;11.95;6.10;;;-1.10;99.90;;;;;;4822068;29;20054;-60
2023/03/08 01:46:33;;;;;;;18.13;6.63;;;-1.00;99.90;;;;;;4814326;29;20047;-59
2023/03/08 01:49:24;;;;;;;14.10;5.95;;;-1.00;99.90;;;;;;4834965;29;20049;-59
2023/03/08 01:52:02;;;;;;;11.55;5.28;;;-1.00;99.90;;;;;;4821534;29;20057;-60
2023/03/08 01:54:36;;;;;;;14.18;6.63;;;-1.00;99.90;;;;;;4813343;29;20069;-59
2023/03/08 01:57:27;;;;;;;10.60;5.25;;;-1.00;99.90;;;;;;4818561;29;20050;-59
2023/03/08 02:00:23;;;;;;;16.48;5.80;;;-1.00;99.90;;;;;;4819576;29;20062;-59
2023/03/08 02:03:04;;;;;;;8.85;4.78;;;-1.00;99.90;;;;;;4834239;29;20407;-59
2023/03/08 02:05:34;;;;;;;16.60;5.75;;;-1.00;99.90;;;;;;4836355;29;20677;-58
2023/03/08 02:08:12;;;;;;;10.98;4.60;;;-1.00;99.90;;;;;;4831438;29;20054;-60
2023/03/08 02:10:45;;;;;;;10.13;4.68;;;-1.00;99.90;;;;;;4818579;29;20046;-59
2023/03/08 02:13:15;;;;;;;12.27;4.97;;;-1.00;99.90;;;;;;4821162;29;20498;-58
2023/03/08 02:15:44;;;;;;;11.85;5.50;;;-1.00;99.90;;;;;;4818548;29;20054;-59
2023/03/08 02:18:12;;;;;;;12.05;5.78;;;-1.00;99.90;;;;;;4824628;29;20049;-59
2023/03/08 02:20:40;;;;;;;20.70;5.32;;;-0.90;99.90;;;;;;4834691;29;20061;-60
2023/03/08 02:23:20;;;;;;;24.10;6.95;;;-0.90;99.90;;;;;;4822840;29;20053;-60
2023/03/08 02:26:03;;;;;;;19.63;5.78;;;-0.70;99.90;;;;;;4819508;29;20047;-60
2023/03/08 02:28:41;;;;;;;16.40;5.53;;;-0.90;99.90;;;;;;4819730;29;20499;-60
2023/03/08 02:31:09;;;;;;;17.63;5.13;;;-1.00;99.90;;;;;;4815758;29;20490;-60
2023/03/08 02:33:37;;;;;;;16.50;5.00;;;-0.90;99.90;;;;;;4820652;29;20648;-60
2023/03/08 02:36:07;;;;;;;15.20;4.72;;;-1.00;99.90;;;;;;4821251;29;20050;-61
2023/03/08 02:38:35;;;;;;;11.77;4.18;;;-0.90;99.90;;;;;;4831785;29;20054;-60
2023/03/08 02:41:04;;;;;;;7.18;3.95;;;-0.90;99.90;;;;;;4839410;29;20042;-58
2023/03/08 02:43:32;;;;;;;12.83;4.60;;;-1.00;99.90;;;;;;4824427;29;20042;-60
2023/03/08 02:46:00;;;;;;;7.45;3.58;;;-0.90;99.90;;;;;;4834543;29;20054;-59
2023/03/08 02:48:31;;;;;;;10.85;4.68;;;-0.90;99.90;;;;;;4821140;29;20046;-59
2023/03/08 02:50:59;;;;;;;11.15;4.55;;;-0.90;99.90;;;;;;4821076;29;20065;-59
2023/03/08 02:53:30;;;;;;;8.02;3.88;;;-0.90;99.90;;;;;;4820977;29;20428;-59
2023/03/08 02:55:59;;;;;;;10.45;4.10;;;-0.90;99.90;;;;;;4821181;29;20054;-59
2023/03/08 02:58:35;;;;;;;8.52;3.55;;;-0.90;99.90;;;;;;4821563;29;20414;-59
2023/03/08 03:01:03;;;;;;;10.85;3.97;;;-0.90;99.90;;;;;;4822879;29;20050;-60
2023/03/08 03:03:30;;;;;;;14.05;4.00;;;-0.90;99.90;;;;;;4821938;29;20047;-59
2023/03/08 03:05:58;;;;;;;11.02;4.15;;;-0.90;99.90;;;;;;4822161;29;20047;-59
2023/03/08 03:08:30;;;;;;;8.88;3.72;;;-0.90;99.90;;;;;;4821070;29;20050;-60
2023/03/08 03:10:58;;;;;;;9.43;4.20;;;-0.90;99.90;;;;;;4821047;29;20061;-59
2023/03/08 03:13:26;;;;;;;12.07;4.10;;;-0.90;99.90;;;;;;4802958;29;20419;-59
2023/03/08 03:15:53;;;;;;;11.85;4.47;;;-0.80;99.90;;;;;;4811070;29;20546;-60
2023/03/08 03:18:21;;;;;;;11.82;3.92;;;-0.80;99.90;;;;;;4833071;29;20050;-59
2023/03/08 03:20:49;;;;;;;11.68;4.65;;;-0.80;99.90;;;;;;4841839;29;20053;-60
2023/03/08 03:23:21;;;;;;;16.00;4.72;;;-0.80;99.90;;;;;;4843799;29;20054;-59
2023/03/08 03:25:52;;;;;;;11.35;3.95;;;-0.80;99.90;;;;;;4828953;29;20057;-60
2023/03/08 03:28:22;;;;;;;6.78;3.80;;;-0.80;99.90;;;;;;4820582;29;20128;-59
2023/03/08 03:30:50;;;;;;;6.68;3.65;;;-0.70;99.90;;;;;;4806364;29;20047;-59
2023/03/08 03:33:18;;;;;;;13.88;4.00;;;-0.80;99.90;;;;;;4811990;29;20500;-60
2023/03/08 03:35:46;;;;;;;9.45;3.55;;;-0.80;99.90;;;;;;4815105;29;20411;-59
2023/03/08 03:38:15;;;;;;;7.30;3.13;;;-0.80;99.90;;;;;;4823938;29;20051;-60
2023/03/08 03:40:44;;;;;;;10.05;3.75;;;-0.80;99.90;;;;;;4823553;29;20042;-60
2023/03/08 03:43:12;;;;;;;10.48;3.38;;;-0.90;99.90;;;;;;4823449;29;20054;-59
2023/03/08 03:45:40;;;;;;;8.60;3.28;;;-0.90;99.90;;;;;;4822012;29;20495;-60
2023/03/08 03:48:11;;;;;;;7.47;3.67;;;-0.90;99.90;;;;;;4824516;29;20050;-59
2023/03/08 03:50:42;;;;;;;9.15;3.20;;;-0.90;99.90;;;;;;4824839;29;20046;-59
2023/03/08 03:53:13;;;;;;;14.15;4.80;;;-0.90;99.90;;;;;;4823486;29;20054;-60
2023/03/08 03:55:41;;;;;;;8.75;3.38;;;-0.90;99.90;;;;;;4807423;29;20050;-59
2023/03/08 03:58:08;;;;;;;10.25;4.07;;;-0.90;99.90;;;;;;4819707;29;20062;-59
2023/03/08 04:00:37;;;;;;;7.47;3.63;;;-1.00;99.90;;;;;;4806647;29;20050;-59
2023/03/08 04:03:16;;;;;;;6.93;3.10;;;-0.90;99.90;;;;;;4805496;29;20039;-59
2023/03/08 04:05:44;;;;;;;10.05;4.03;;;-0.80;99.90;;;;;;4790457;29;20082;-59
2023/03/08 04:08:14;;;;;;;9.43;3.10;;;-0.90;99.90;;;;;;4805706;29;20109;-59
2023/03/08 04:10:42;;;;;;;7.40;3.60;;;-0.80;99.90;;;;;;4823730;29;20410;-60
2023/03/08 04:13:11;;;;;;;16.63;3.35;;;-0.90;99.90;;;;;;4822900;29;20057;-59
2023/03/08 04:15:39;;;;;;;;;;;-0.90;99.90;;;;;;4823734;29;20519;-60
2023/03/08 04:18:11;;;;;;;6.50;2.65;;;-0.80;99.90;;;;;;4836608;29;19932;-60
2023/03/08 04:20:44;;;;;;;7.97;3.10;;;-0.90;99.90;;;;;;4841500;29;20070;-60
2023/03/08 04:23:12;;;;;;;10.27;3.35;;;-0.90;99.90;;;;;;4826901;29;20055;-60
2023/03/08 04:25:42;;;;;;;9.18;3.58;;;-0.90;99.90;;;;;;4823186;29;20050;-60
2023/03/08 04:28:14;;;;;;;7.07;3.10;;;-0.90;99.90;;;;;;4822938;29;20057;-59
2023/03/08 04:30:44;;;;;;;7.70;3.30;;;-0.90;99.90;;;;;;4808620;29;20046;-59
2023/03/08 04:33:18;;;;;;;7.07;3.08;;;-0.90;99.90;;;;;;4823168;29;20050;-59
2023/03/08 04:35:48;;;;;;;9.63;2.33;;;-0.90;99.90;;;;;;4824051;29;20522;-59
2023/03/08 04:38:22;;;;;;;9.43;3.13;;;-0.90;99.90;;;;;;4822958;29;20043;-59
2023/03/08 04:41:05;;;;;;;5.60;2.33;;;-0.90;99.90;;;;;;4823106;29;20399;-59
2023/03/08 04:43:49;;;;;;;6.57;2.83;;;-0.90;99.90;;;;;;4822542;29;20069;-60
2023/03/08 04:46:23;;;;;;;8.65;2.65;;;-0.90;99.90;;;;;;4822837;29;20065;-59
2023/03/08 04:48:54;;;;;;;7.05;2.05;;;-0.90;99.90;;;;;;4841148;29;20050;-60
2023/03/08 04:51:26;;;;;;;5.55;2.85;;;-0.80;99.90;;;;;;4841120;29;20045;-59
2023/03/08 04:53:57;;;;;;;10.98;2.38;;;-0.80;99.90;;;;;;4841023;29;20042;-59
2023/03/08 04:56:25;;;;;;;3.63;1.52;;;-0.80;99.90;;;;;;4830599;29;20053;-60
2023/03/08 04:58:53;;;;;;;3.00;1.30;;;-0.80;99.90;;;;;;4822380;29;20491;-59
2023/03/08 05:01:23;;;;;;;1.67;1.00;;;-0.70;99.90;;;;;;4822648;29;20054;-60
2023/03/08 05:03:56;;;;;;;1.35;0.98;;;-0.80;99.90;;;;;;4822590;29;20053;-59
2023/03/08 05:06:31;;;;;;;4.95;0.88;;;-0.70;99.90;;;;;;4822593;29;20047;-60
2023/03/08 05:08:59;;;;;;;3.90;1.02;;;-0.60;99.90;;;;;;4823736;29;20513;-60
2023/03/08 05:11:28;;;;;;;2.87;0.83;;;-0.60;99.90;;;;;;4822695;29;20050;-59
2023/03/08 05:13:59;;;;;;;2.10;0.98;;;-0.50;99.90;;;;;;4822019;29;20301;-59
2023/03/08 05:16:28;;;;;;;3.15;1.23;;;-0.30;99.90;;;;;;4822910;29;20043;-61
2023/03/08 05:18:58;;;;;;;2.13;1.02;;;-0.40;99.90;;;;;;4840524;29;20064;-60
2023/03/08 05:21:33;;;;;;;2.03;1.20;;;-0.30;99.90;;;;;;4836088;29;20039;-59
2023/03/08 05:24:04;;;;;;;2.60;1.52;;;-0.30;99.90;;;;;;4822297;29;20404;-59
2023/03/08 05:26:37;;;;;;;2.78;1.20;;;-0.20;99.90;;;;;;4822246;29;20038;-59
2023/03/08 05:29:05;;;;;;;2.05;1.10;;;-0.20;99.90;;;;;;4822160;29;20054;-59
2023/03/08 05:31:36;;;;;;;;;;;-0.20;99.90;;;;;;4823707;29;20515;-59
2023/03/08 05:34:09;;;;;;;4.97;1.73;;;-0.10;99.90;;;;;;4822123;29;19925;-59
2023/03/08 05:36:38;;;;;;;2.17;1.00;;;-0.10;99.90;;;;;;4822013;29;20042;-59
2023/03/08 05:39:10;;;;;;;7.68;1.90;;;-0.10;99.90;;;;;;4823327;29;20081;-59
2023/03/08 05:41:53;;;;;;;3.70;1.77;;;-0.10;99.90;;;;;;4821713;29;20376;-59
2023/03/08 05:44:27;;;;;;;12.02;2.00;;;-0.10;99.90;;;;;;4821437;29;20411;-59
2023/03/08 05:46:58;;;;;;;4.32;1.52;;;-0.10;99.90;;;;;;4823406;29;20057;-59
2023/03/08 05:49:26;;;;;;;5.15;2.17;;;0.00;99.90;;;;;;4816236;29;20046;-60
2023/03/08 05:51:54;;;;;;;6.70;1.58;;;0.00;99.90;;;;;;4792281;29;20046;-59
2023/03/08 05:54:23;;;;;;;6.43;2.45;;;0.00;99.90;;;;;;4803629;29;20050;-60
2023/03/08 05:56:54;;;;;;;6.85;1.95;;;0.00;99.90;;;;;;4801601;29;20047;-60
2023/03/08 05:59:26;;;;;;;3.60;1.65;;;0.10;99.90;;;;;;4801747;29;20063;-60
2023/03/08 06:02:00;;;;;;;4.30;2.40;;;0.00;99.90;;;;;;4800874;29;20047;-59
2023/03/08 06:04:34;;;;;;;3.85;2.00;;;0.00;99.90;;;;;;4815873;29;20521;-60
2023/03/08 06:07:02;;;;;;;6.05;2.17;;;0.10;99.90;;;;;;4815683;29;20046;-59
2023/03/08 06:09:37;;;;;;;4.75;2.38;;;0.10;99.90;;;;;;4833759;29;20430;-60
2023/03/08 06:12:07;;;;;;;9.80;2.63;;;0.10;99.90;;;;;;4833110;29;20042;-60
2023/03/08 06:14:36;;;;;;;8.00;3.00;;;0.10;99.90;;;;;;4826147;29;20051;-60
2023/03/08 06:17:04;;;;;;;9.25;3.33;;;0.10;99.90;;;;;;4821424;29;20050;-59
2023/03/08 06:19:35;;;;;;;10.38;2.80;;;0.10;99.90;;;;;;4818287;29;20043;-60
2023/03/08 06:22:02;;;;;;;6.55;2.83;;;0.10;99.90;;;;;;4819556;29;20667;-59
2023/03/08 06:24:31;;;;;;;8.13;2.90;;;0.10;99.90;;;;;;4823253;29;20050;-60
2023/03/08 06:27:05;;;;;;;6.10;2.78;;;0.10;99.90;;;;;;4818155;29;20573;-60
2023/03/08 06:29:39;;;;;;;7.78;3.00;;;0.10;99.90;;;;;;4818094;29;20054;-60
2023/03/08 06:32:11;;;;;;;7.22;3.08;;;0.20;99.90;;;;;;4815447;29;20050;-60
2023/03/08 06:34:40;;;;;;;9.27;3.20;;;0.20;99.90;;;;;;4799563;29;20666;-59
2023/03/08 06:37:07;;;;;;;7.60;3.47;;;0.20;99.90;;;;;;4814824;29;20046;-61
2023/03/08 06:39:35;;;;;;;16.65;4.55;;;0.20;99.90;;;;;;4816114;29;20439;-59
2023/03/08 06:42:05;;;;;;;;;;;0.10;99.90;;;;;;4818670;29;20050;-61
2023/03/08 06:44:34;;;;;;;9.65;3.40;;;0.20;99.90;;;;;;4820227;29;19929;-59
2023/03/08 06:47:03;;;;;;;14.47;4.13;;;0.20;99.90;;;;;;4821441;29;20368;-59
2023/03/08 06:49:31;;;;;;;6.53;4.00;;;0.20;99.90;;;;;;4817424;29;20331;-60
2023/03/08 06:52:02;;;;;;;9.75;4.00;;;0.30;99.90;;;;;;4815880;29;20066;-59
2023/03/08 06:54:30;;;;;;;11.88;4.30;;;0.30;99.90;;;;;;4829858;29;20080;-60
2023/03/08 06:56:58;;;;;;;10.48;3.90;;;0.30;99.90;;;;;;4822164;29;20054;-60
2023/03/08 06:59:25;;;;;;;15.85;4.00;;;0.30;99.90;;;;;;4804007;29;20062;-59
2023/03/08 07:01:53;;;;;;;10.02;4.57;;;0.30;99.90;;;;;;4802396;29;20070;-59
2023/03/08 07:04:21;;;;;;;10.52;3.72;;;0.30;99.90;;;;;;4823155;29;20069;-59
2023/03/08 07:06:52;;;;;;;14.10;4.28;;;0.40;99.90;;;;;;4805300;29;20055;-61
2023/03/08 07:09:20;;;;;;;10.57;4.65;;;0.40;99.90;;;;;;4839539;29;20057;-58
2023/03/08 07:11:47;;;;;;;10.80;4.47;;;0.40;99.90;;;;;;4841009;29;20065;-59
2023/03/08 07:14:15;;;;;;;12.50;4.45;;;0.40;99.90;;;;;;4821703;29;20053;-59
2023/03/08 07:16:45;;;;;;;12.82;4.43;;;0.40;99.90;;;;;;4824658;29;20061;-60
2023/03/08 07:19:13;;;;;;;8.48;5.03;;;0.50;99.90;;;;;;4818205;29;20050;-60
2023/03/08 07:21:43;;;;;;;13.88;4.80;;;0.40;99.90;;;;;;4802786;29;20063;-59
2023/03/08 07:24:10;;;;;;;12.68;4.65;;;0.50;99.90;;;;;;4832594;29;20054;-60
2023/03/08 07:26:38;;;;;;;11.75;4.80;;;0.60;99.90;;;;;;4822285;29;20423;-59
2023/03/08 07:29:06;;;;;;;8.95;4.88;;;0.60;99.90;;;;;;4821533;29;20051;-59
2023/03/08 07:31:35;;;;;;;12.40;5.53;;;0.60;99.90;;;;;;4819044;29;20061;-61
2023/03/08 07:34:03;;;;;;;12.55;4.70;;;0.70;99.90;;;;;;4817164;29;20055;-60
2023/03/08 07:36:31;;;;;;;12.75;5.00;;;0.60;99.90;;;;;;4818850;29;20050;-60
2023/03/08 07:38:59;;;;;;;13.20;4.90;;;0.70;99.90;;;;;;4818375;29;20407;-61
2023/03/08 07:41:30;;;;;;;15.60;5.72;;;0.70;99.90;;;;;;4819704;29;20058;-60
2023/03/08 07:43:58;;;;;;;11.95;5.90;;;0.70;99.90;;;;;;4830421;29;20061;-60
2023/03/08 07:46:27;;;;;;;14.23;5.82;;;0.70;99.90;;;;;;4807941;29;20513;-61
2023/03/08 07:48:55;;;;;;;12.02;5.90;;;;;;;;;;4810796;29;20200;-60
2023/03/08 07:51:25;;;;;;;12.38;5.68;;;0.80;99.90;;;;;;4799890;29;20063;-59
2023/03/08 07:53:52;;;;;;;12.30;5.60;;;0.90;99.90;;;;;;4819628;29;20047;-61
2023/03/08 07:56:20;;;;;;;9.93;5.25;;;0.90;99.90;;;;;;4809894;29;20664;-59
2023/03/08 07:58:48;;;;;;;16.17;5.60;;;1.00;99.90;;;;;;4813348;29;20065;-59
2023/03/08 08:01:16;;;;;;;17.27;6.32;;;1.00;99.90;;;;;;4818441;29;20054;-60
2023/03/08 08:03:44;;;;;;;15.40;5.68;;;1.00;99.90;;;;;;4820744;29;20053;-60
2023/03/08 08:06:12;;;;;;;15.88;6.68;;;1.00;99.90;;;;;;4818848;29;20062;-59
2023/03/08 08:08:42;;;;;;;18.17;7.15;;;1.00;99.90;;;;;;4824389;29;20065;-60
2023/03/08 08:11:12;;;;;;;14.13;5.70;;;1.10;99.90;;;;;;4834770;29;20097;-59
2023/03/08 08:13:40;;;;;;;13.07;5.88;;;1.20;99.90;;;;;;4831154;29;20065;-60
2023/03/08 08:16:08;;;;;;;12.45;5.05;;;1.20;99.90;;;;;;4835735;29;20054;-61
2023/03/08 08:18:36;;;;;;;17.30;6.45;;;1.30;99.90;;;;;;4830166;29;20075;-60
2023/03/08 08:21:07;;;;;;;11.60;5.50;;;1.20;99.90;;;;;;4800102;29;20075;-60
2023/03/08 08:23:35;;;;;;;12.00;5.88;;;1.30;99.90;;;;;;4809632;29;20050;-59
2023/03/08 08:26:05;;;;;;;13.80;6.10;;;1.30;99.90;;;;;;4835883;29;20490;-59
2023/03/08 08:28:34;;;;;;;12.90;6.30;;;1.30;99.90;;;;;;4835274;29;20062;-59
2023/03/08 08:31:05;;;;;;;15.38;6.25;;;1.30;99.90;;;;;;4834486;29;20053;-60
2023/03/08 08:33:34;;;;;;;14.93;5.18;;;1.40;99.90;;;;;;4817964;29;20081;-59
2023/03/08 08:36:05;;;;;;;11.13;5.93;;;1.40;99.90;;;;;;4798942;29;20047;-59
2023/03/08 08:38:33;;;;;;;8.73;5.43;;;1.40;99.90;;;;;;4824263;29;20084;-60
2023/03/08 08:41:03;;;;;;;11.65;5.10;;;1.40;99.90;;;;;;4837823;29;20097;-60
2023/03/08 08:43:33;;;;;;;12.57;5.88;;;1.50;99.90;;;;;;4814886;29;20512;-60
2023/03/08 08:46:01;;;;;;;11.48;5.25;;;1.50;99.90;;;;;;4802702;29;20054;-60
2023/03/08 08:48:31;;;;;;;15.50;5.53;;;1.50;99.90;;;;;;4812318;29;20046;-60
2023/03/08 08:51:00;;;;;;;10.93;4.97;;;1.50;99.90;;;;;;4819298;29;20054;-60
2023/03/08 08:53:27;;;;;;;14.98;5.38;;;1.60;99.90;;;;;;4818503;29;20054;-60
2023/03/08 08:55:56;;;;;;;15.82;5.78;;;1.60;99.90;;;;;;4805628;29;20049;-61
2023/03/08 08:58:24;;;;;;;21.08;5.93;;;1.60;99.90;;;;;;4820771;29;20531;-59
2023/03/08 09:00:52;;;;;;;19.00;6.30;;;1.70;99.90;;;;;;4808407;29;20061;-59
2023/03/08 09:03:19;;;;;;;13.18;5.53;;;1.80;99.90;;;;;;4827909;29;20050;-59
2023/03/08 09:05:47;;;;;;;14.00;5.15;;;1.80;99.90;;;;;;4811014;29;20058;-59
2023/03/08 09:08:15;;;;;;;9.32;4.97;;;1.80;99.90;;;;;;4811837;29;20065;-59
2023/03/08 09:10:43;;;;;;;14.50;5.90;;;1.80;99.90;;;;;;4819264;29;20065;-60
2023/03/08 09:13:11;;;;;;;10.75;4.85;;;1.90;99.90;;;;;;4811235;29;20057;-60
2023/03/08 09:15:39;;;;;;;10.05;5.03;;;1.90;99.90;;;;;;4801371;29;20050;-60
2023/03/08 09:18:06;;;;;;;14.38;4.97;;;2.00;99.90;;;;;;4817172;29;20046;-59
2023/03/08 09:20:34;;;;;;;10.13;4.43;;;2.00;99.90;;;;;;4807793;29;20159;-59
2023/03/08 09:23:02;;;;;;;8.88;4.47;;;;;;;;;;4815928;29;20046;-60
2023/03/08 09:25:30;;;;;;;9.50;4.97;;;2.10;99.90;;;;;;4811195;29;20058;-61
2023/03/08 09:27:57;;;;;;;12.68;4.22;;;2.20;99.90;;;;;;4799058;29;20054;-61
2023/03/08 09:30:25;;;;;;;9.95;4.47;;;2.20;99.90;;;;;;4798715;29;20550;-59
2023/03/08 09:32:53;;;;;;;14.95;4.70;;;2.20;99.90;;;;;;4811298;29;20054;-60
2023/03/08 09:35:21;;;;;;;9.90;4.93;;;2.30;99.90;;;;;;4804393;29;20406;-59
2023/03/08 09:37:49;;;;;;;10.70;5.18;;;2.30;99.90;;;;;;4805898;29;20129;-58
2023/03/08 09:40:24;;;;;;;8.90;4.05;;;2.30;99.90;;;;;;4800354;29;20551;-59
2023/03/08 09:43:02;;;;;;;8.43;4.13;;;2.40;99.90;;;;;;4807671;29;20054;-60
2023/03/08 09:45:32;;;;;;;8.02;4.38;;;2.40;99.90;;;;;;4806172;29;20050;-59
2023/03/08 09:48:06;;;;;;;11.93;5.20;;;1.60;99.90;;;;;;4826383;29;20522;-60
2023/03/08 09:50:59;;;;;;;14.00;4.72;;;2.50;99.90;;;;;;4815973;29;20058;-59
2023/03/08 09:53:54;;;;;;;10.48;4.47;;;2.60;99.90;;;;;;4817349;29;20051;-61
2023/03/08 09:56:29;;;;;;;8.65;4.35;;;2.60;99.90;;;;;;4806068;29;20058;-60
2023/03/08 09:59:12;;;;;;;15.43;4.80;;;2.60;99.90;;;;;;4825834;29;20050;-59
2023/03/08 10:02:01;;;;;;;7.75;4.70;;;2.70;99.90;;;;;;4801722;29;20054;-60
2023/03/08 10:04:57;;;;;;;12.93;4.47;;;2.70;99.90;;;;;;4811458;29;20061;-59
2023/03/08 10:07:51;;;;;;;8.43;4.68;;;2.80;99.90;;;;;;4803065;29;20411;-60
2023/03/08 10:10:18;;;;;;;;;;;2.80;99.90;;;;;;4820354;29;20427;-61
2023/03/08 10:13:08;;;;;;;10.93;4.70;;;2.80;99.90;;;;;;4823856;29;19931;-60
2023/03/08 10:15:42;;;;;;;6.70;3.65;;;2.80;99.90;;;;;;4818288;29;20387;-60
2023/03/08 10:18:16;;;;;;;11.02;4.20;;;2.90;99.90;;;;;;4815877;29;20265;-59
2023/03/08 10:20:47;;;;;;;9.02;3.28;;;2.80;99.90;;;;;;4814146;29;20057;-60
2023/03/08 10:23:19;;;;;;;5.95;3.47;;;2.80;99.90;;;;;;4826962;29;20654;-61
2023/03/08 10:25:48;;;;;;;4.57;2.70;;;2.80;99.90;;;;;;4826743;29;20051;-60
2023/03/08 10:28:21;;;;;;;9.48;3.90;;;2.70;99.90;;;;;;4819653;29;20050;-59
2023/03/08 10:30:55;;;;;;;7.28;3.92;;;2.70;99.90;;;;;;4839133;29;20046;-59
2023/03/08 10:33:26;;;;;;;4.47;2.60;;;2.70;99.90;;;;;;4836959;29;20066;-59
2023/03/08 10:36:06;;;;;;;5.18;3.28;;;2.70;99.90;;;;;;4817065;29;20051;-60
2023/03/08 10:38:36;;;;;;;6.30;3.42;;;2.70;99.90;;;;;;4827788;29;20053;-60
2023/03/08 10:41:13;;;;;;;6.30;3.05;;;2.70;99.90;;;;;;4837994;29;20045;-63
2023/03/08 10:43:47;;;;;;;9.55;3.22;;;2.80;99.90;;;;;;4833875;29;20058;-58
2023/03/08 10:46:18;;;;;;;6.90;2.97;;;2.80;99.90;;;;;;4836710;29;20054;-60
2023/03/08 10:48:47;;;;;;;6.30;3.00;;;2.80;99.90;;;;;;4817296;29;20389;-59
2023/03/08 10:51:19;;;;;;;7.33;3.07;;;2.90;99.90;;;;;;4812734;29;20084;-60
2023/03/08 10:54:01;;;;;;;6.85;3.15;;;2.80;99.90;;;;;;4820288;29;20492;-61
2023/03/08 10:56:43;;;;;;;7.18;3.53;;;2.90;99.90;;;;;;4810984;29;20055;-60
2023/03/08 10:59:31;;;;;;;13.82;3.17;;;2.90;99.90;;;;;;4816387;29;20050;-58
2023/03/08 11:02:17;;;;;;;7.25;3.25;;;3.00;99.90;;;;;;4814507;29;20046;-60
2023/03/08 11:04:55;;;;;;;7.35;3.05;;;3.10;99.90;;;;;;4824290;29;20057;-60
2023/03/08 11:07:32;;;;;;;13.50;3.50;;;3.20;99.90;;;;;;4813138;29;20432;-59
2023/03/08 11:10:18;;;;;;;8.23;4.22;;;3.20;99.90;;;;;;4801259;29;20051;-60
2023/03/08 11:12:46;;;;;;;8.15;3.53;;;3.20;99.90;;;;;;4810463;29;20058;-60
2023/03/08 11:15:19;;;;;;;9.15;3.10;;;3.20;99.90;;;;;;4830288;29;20077;-58
2023/03/08 11:18:07;;;;;;;6.03;3.10;;;3.20;99.90;;;;;;4823641;29;20042;-60
2023/03/08 11:20:48;;;;;;;10.10;3.65;;;3.20;99.90;;;;;;4797584;29;20047;-59
2023/03/08 11:23:41;;;;;;;7.28;3.03;;;3.10;99.90;;;;;;4814066;29;20050;-60
2023/03/08 11:26:25;;;;;;;6.97;3.25;;;3.10;99.90;;;;;;4810709;29;20546;-60
2023/03/08 11:29:15;;;;;;;6.18;3.13;;;3.10;99.90;;;;;;4811854;29;20059;-59
2023/03/08 11:31:59;;;;;;;6.32;3.25;;;3.10;99.90;;;;;;4814461;29;20062;-59
2023/03/08 11:34:45;;;;;;;8.82;3.60;;;3.20;99.90;;;;;;4818029;29;20051;-59
2023/03/08 11:37:13;;;;;;;7.82;3.15;;;3.20;99.90;;;;;;4815485;29;20061;-61
2023/03/08 11:39:54;;;;;;;8.50;3.20;;;3.20;99.90;;;;;;4840264;29;20394;-60
2023/03/08 11:42:47;;;;;;;4.47;2.78;;;3.30;99.90;;;;;;4819780;29;20046;-59
2023/03/08 11:46:03;;;;;;;5.15;2.38;;;3.30;99.90;;;;;;4801840;29;20504;-60
2023/03/08 11:48:53;;;;;;;6.88;2.70;;;3.30;99.90;;;;;;4813389;29;20570;-60
2023/03/08 11:51:40;;;;;;;2.55;2.13;;;3.40;99.90;;;;;;4807120;29;20089;-59
2023/03/08 11:54:32;;;;;;;5.30;2.13;;;3.40;99.90;;;;;;4834668;29;20061;-59
2023/03/08 11:57:07;;;;;;;3.42;1.85;;;3.50;99.90;;;;;;4803194;29;20055;-60
2023/03/08 12:00:05;;;;;;;4.93;1.90;;;3.50;99.90;;;;;;4804847;29;20059;-58
2023/03/08 12:02:45;;;;;;;3.90;2.03;;;3.60;99.90;;;;;;4812201;29;20057;-60
2023/03/08 12:05:31;;;;;;;4.53;1.77;;;3.60;99.90;;;;;;4803069;29;20046;-61
2023/03/08 12:08:04;;;;;;;8.82;2.25;;;3.60;99.90;;;;;;4820508;29;20054;-60
2023/03/08 12:10:50;;;;;;;6.55;2.45;;;3.60;99.90;;;;;;4809694;29;20059;-61
2023/03/08 12:13:37;;;;;;;3.90;1.92;;;3.70;99.90;;;;;;4818764;29;20065;-59
2023/03/08 12:16:08;;;;;;;8.00;3.00;;;3.70;99.90;;;;;;4809578;29;20050;-59
2023/03/08 12:18:45;;;;;;;3.63;2.30;;;3.70;99.90;;;;;;4822703;29;20504;-59
2023/03/08 12:21:31;;;;;;;4.35;2.17;;;3.80;99.90;;;;;;4804988;29;20050;-60
2023/03/08 12:24:32;;;;;;;10.20;2.50;;;3.80;99.90;;;;;;4831330;29;20049;-59
2023/03/08 12:27:06;;;;;;;7.85;3.25;;;3.80;99.90;;;;;;4821332;29;20062;-60
2023/03/08 12:29:46;;;;;;;5.75;2.60;;;3.80;99.90;;;;;;4803005;29;20054;-60
2023/03/08 12:32:16;;;;;;;9.00;2.30;;;3.80;99.90;;;;;;4810279;29;20061;-60
2023/03/08 12:34:45;;;;;;;;;;;3.70;99.90;;;;;;4839524;29;20057;-60
2023/03/08 12:37:26;;;;;;;3.60;2.20;;;3.70;99.90;;;;;;4814736;29;19929;-60
2023/03/08 12:39:58;;;;;;;9.95;1.98;;;3.50;99.90;;;;;;4819819;29;20051;-59
2023/03/08 12:42:39;;;;;;;5.70;2.58;;;3.30;99.90;;;;;;4821095;29;20057;-62
2023/03/08 12:45:19;;;;;;;7.30;2.65;;;3.30;99.90;;;;;;4802548;29;20407;-60
2023/03/08 12:48:14;;;;;;;4.57;2.08;;;3.10;99.90;;;;;;4816381;29;20046;-59
2023/03/08 12:50:54;;;;;;;6.45;2.88;;;3.10;99.90;;;;;;4817041;29;20065;-60
2023/03/08 12:53:36;;;;;;;;;;;3.00;99.90;;;;;;4817926;29;20395;-59
2023/03/08 12:56:27;;;;;;;8.82;3.30;;;2.90;99.90;;;;;;4804301;29;19925;-58
2023/03/08 12:59:18;;;;;;;12.27;3.17;;;2.70;99.90;;;;;;4822287;29;20057;-60
2023/03/08 13:01:57;;;;;;;;;;;2.70;99.90;;;;;;4819620;29;20050;-58
2023/03/08 13:04:36;;;;;;;5.85;2.83;;;2.70;99.90;;;;;;4814283;29;19936;-60
2023/03/08 13:07:20;;;;;;;8.05;2.90;;;2.70;99.90;;;;;;4812307;29;20066;-60
2023/03/08 13:10:15;;;;;;;6.05;2.65;;;2.60;99.90;;;;;;4812117;29;20051;-59
2023/03/08 13:12:58;;;;;;;5.60;2.40;;;2.60;99.90;;;;;;4823436;29;20074;-60
2023/03/08 13:15:29;;;;;;;6.22;2.67;;;2.50;99.90;;;;;;4802188;29;20066;-61
2023/03/08 13:18:15;;;;;;;7.35;2.88;;;2.60;99.90;;;;;;4828365;29;20045;-60
2023/03/08 13:20:54;;;;;;;8.50;4.03;;;2.50;99.90;;;;;;4804066;29;20054;-64